Time;durP1;ratioP1;P1;durP2;ratioP2;P2;SDS_P1;SDS_P2;PMS_P1;PMS_P2;Temp;Humidity;BMP_temperature;BMP_pressure;BME280_temperature;BME280_humidity;BME280_pressure;Samples;Min_cycle;Max_cycle;Signal;HPM_P1;HPM_P2
2022/02/25 00:02:23;;;;;;;;;;;;;;;0.74;100.00;95751.69;10562582;27;1859;-72
2022/02/25 00:07:27;;;;;;;;;;;;;;;0.86;100.00;95771.16;10546344;27;2005;-72
2022/02/25 00:12:31;;;;;;;;;;;;;;;0.85;100.00;95780.13;10540182;28;1885;-70
2022/02/25 00:17:35;;;;;;;;;;;;;;;0.86;100.00;95787.03;10562464;27;1852;-70
2022/02/25 00:22:38;;;;;;;;;;;;;;;0.80;100.00;95807.22;10537078;28;1812;-71
2022/02/25 00:27:42;;;;;;;;;;;;;;;0.81;100.00;95813.31;10532718;28;1917;-71
2022/02/25 00:32:45;;;;;;;;;;;;;;;0.81;100.00;95837.13;10542941;28;1763;-71
2022/02/25 00:37:49;;;;;;;;;;;;;;;0.88;100.00;95842.38;10549333;28;1806;-70
2022/02/25 00:42:53;;;;;;;;;;;;;;;0.66;100.00;95803.00;10561601;28;1993;-71
2022/02/25 00:47:56;;;;;;;;;;;;;;;0.49;100.00;95792.09;10565969;27;1744;-70
2022/02/25 00:53:01;;;;;;;;;;;;;;;0.50;100.00;95822.00;10586792;27;1894;-71
2022/02/25 00:58:04;;;;;;;;;;;;;;;0.52;100.00;95843.78;10551363;27;1961;-70
2022/02/25 01:03:07;;;;;;;;;;;;;;;0.69;100.00;95838.81;10553156;27;1973;-69
2022/02/25 01:08:11;;;;;;;;;;;;;;;0.56;100.00;95836.22;10572139;27;1868;-71
2022/02/25 01:13:14;;;;;;;;;;;;;;;0.33;100.00;95850.75;10572592;27;1827;-72
2022/02/25 01:18:18;;;;;;;;;;;;;;;0.37;100.00;95867.81;10577107;27;1799;-70
2022/02/25 01:23:23;;;;;;;;;;;;;;;0.50;100.00;95896.84;10560602;27;1944;-71
2022/02/25 01:28:26;;;;;;;;;;;;;;;0.58;100.00;95901.13;10572032;27;1802;-71
2022/02/25 01:33:30;;;;;;;;;;;;;;;0.73;100.00;95911.47;10602685;27;1891;-71
2022/02/25 01:38:34;;;;;;;;;;;;;;;0.93;100.00;95922.78;10551578;27;1793;-69
2022/02/25 01:43:37;;;;;;;;;;;;;;;1.00;100.00;95931.50;10573201;27;1953;-70
2022/02/25 01:48:43;;;;;;;;;;;;;;;1.05;100.00;95938.81;10575084;27;1765;-71
2022/02/25 01:53:48;;;;;;;;;;;;;;;1.15;100.00;95927.81;10579163;27;1871;-71
2022/02/25 01:58:51;;;;;;;;;;;;;;;1.18;100.00;95938.78;10546355;27;2076;-71
2022/02/25 02:03:56;;;;;;;;;;;;;;;1.22;100.00;95957.72;10557011;27;2048;-71
2022/02/25 02:08:59;;;;;;;;;;;;;;;1.22;100.00;95939.19;10561157;27;2001;-70
2022/02/25 02:14:03;;;;;;;;;;;;;;;1.26;100.00;95937.72;10564620;27;2036;-70
2022/02/25 02:19:07;;;;;;;;;;;;;;;1.16;100.00;95958.56;10571786;27;2001;-72
2022/02/25 02:24:12;;;;;;;;;;;;;;;1.20;100.00;95957.09;10569153;27;2005;-72
2022/02/25 02:29:18;;;;;;;;;;;;;;;1.15;100.00;95975.47;10547581;28;1871;-71
2022/02/25 02:34:22;;;;;;;;;;;;;;;1.22;100.00;95970.94;10551002;27;1970;-70
2022/02/25 02:39:26;;;;;;;;;;;;;;;1.31;100.00;95983.72;10545088;28;2366;-71
2022/02/25 02:44:29;;;;;;;;;;;;;;;1.25;100.00;95976.63;10562195;27;1999;-71
2022/02/25 02:49:33;;;;;;;;;;;;;;;1.31;100.00;95990.88;10567442;27;2000;-71
2022/02/25 02:54:36;;;;;;;;;;;;;;;1.29;100.00;95990.28;10549388;27;1897;-72
2022/02/25 02:59:40;;;;;;;;;;;;;;;1.29;100.00;95992.91;10562357;27;1935;-71
2022/02/25 03:04:43;;;;;;;;;;;;;;;1.30;100.00;95995.34;10552314;27;1985;-70
2022/02/25 03:09:47;;;;;;;;;;;;;;;1.32;100.00;95997.78;10543354;27;1991;-71
2022/02/25 03:14:51;;;;;;;;;;;;;;;1.34;100.00;96001.06;10564694;27;1958;-71
2022/02/25 03:19:54;;;;;;;;;;;;;;;1.24;100.00;96011.28;10564886;27;2079;-70
2022/02/25 03:24:59;;;;;;;;;;;;;;;1.26;100.00;96022.44;10563269;27;1967;-70
2022/02/25 03:30:02;;;;;;;;;;;;;;;1.20;100.00;96023.28;10567010;27;1982;-71
2022/02/25 03:35:06;;;;;;;;;;;;;;;1.20;100.00;96016.16;10564007;27;1993;-71
2022/02/25 03:40:10;;;;;;;;;;;;;;;1.28;100.00;96025.72;10570308;27;1890;-70
2022/02/25 03:45:13;;;;;;;;;;;;;;;1.25;100.00;96034.06;10573838;27;1994;-71
2022/02/25 03:50:39;;;;;;;;;;;;;;;1.23;100.00;96041.44;10553471;27;2089;-71
2022/02/25 03:55:42;;;;;;;;;;;;;;;1.25;100.00;96044.66;10561274;27;2028;-71
2022/02/25 04:00:46;;;;;;;;;;;;;;;1.23;100.00;96052.03;10558073;27;1981;-70
2022/02/25 04:05:49;;;;;;;;;;;;;;;1.32;100.00;96061.34;10563941;27;1981;-71
2022/02/25 04:10:53;;;;;;;;;;;;;;;1.32;100.00;96071.94;10538967;28;1963;-71
2022/02/25 04:15:57;;;;;;;;;;;;;;;1.21;99.99;96064.63;10561855;28;1977;-72
2022/02/25 04:21:00;;;;;;;;;;;;;;;1.26;99.23;96063.00;10540537;28;2015;-71
2022/02/25 04:26:05;;;;;;;;;;;;;;;1.29;99.40;96077.66;10581528;27;2009;-72
2022/02/25 04:31:08;;;;;;;;;;;;;;;1.35;99.43;96072.34;10582823;27;1940;-70
2022/02/25 04:36:11;;;;;;;;;;;;;;;1.31;98.82;96080.91;10566603;27;1898;-72
2022/02/25 04:41:15;;;;;;;;;;;;;;;1.29;99.40;96091.72;10573230;27;1930;-72
2022/02/25 04:46:18;;;;;;;;;;;;;;;1.31;99.66;96087.03;10539849;28;1998;-70
2022/02/25 04:51:22;;;;;;;;;;;;;;;1.36;99.38;96086.41;10552150;28;1898;-71
2022/02/25 04:56:25;;;;;;;;;;;;;;;1.32;97.29;96093.13;10541906;28;1803;-72
2022/02/25 05:01:29;;;;;;;;;;;;;;;1.25;97.75;96092.34;10540506;28;1885;-71
2022/02/25 05:06:33;;;;;;;;;;;;;;;1.20;96.95;96100.88;10558204;28;1993;-70
2022/02/25 05:11:37;;;;;;;;;;;;;;;1.24;97.82;96107.41;10580650;27;1906;-70
2022/02/25 05:22:01;;;;;;;;;;;;;;;1.16;96.64;96125.38;10562902;27;1952;-71
2022/02/25 05:27:05;;;;;;;;;;;;;;;1.14;98.08;96133.50;10558903;28;2247;-71
2022/02/25 05:32:08;;;;;;;;;;;;;;;1.10;97.19;96142.06;10573394;27;1917;-70
2022/02/25 05:37:13;;;;;;;;;;;;;;;1.03;98.34;96155.31;10581861;27;2057;-71
2022/02/25 05:42:16;;;;;;;;;;;;;;;0.99;97.72;96162.03;10584673;27;2019;-71
2022/02/25 05:47:20;;;;;;;;;;;;;;;0.91;97.54;96170.19;10574459;27;1934;-70
2022/02/25 05:52:23;;;;;;;;;;;;;;;0.99;98.01;96175.25;10574320;27;1914;-70
2022/02/25 05:57:29;;;;;;;;;;;;;;;0.90;98.47;96181.78;10548290;27;2399;-70
2022/02/25 06:02:32;;;;;;;;;;;;;;;0.91;97.06;96181.56;10580606;27;1950;-71
2022/02/25 06:07:36;;;;;;;;;;;;;;;0.92;98.19;96193.78;10552570;27;1946;-71
2022/02/25 06:12:40;;;;;;;;;;;;;;;0.80;97.61;96198.06;10579956;27;2007;-71
2022/02/25 06:17:44;;;;;;;;;;;;;;;0.71;98.96;96220.44;10561337;27;1980;-71
2022/02/25 06:22:48;;;;;;;;;;;;;;;0.64;98.76;96227.56;10553692;27;2047;-71
2022/02/25 06:27:52;;;;;;;;;;;;;;;0.61;97.08;96226.09;10570433;27;1984;-70
2022/02/25 06:32:55;;;;;;;;;;;;;;;0.54;97.70;96234.03;10585167;27;1986;-72
2022/02/25 06:37:59;;;;;;;;;;;;;;;0.52;96.64;96241.34;10537698;27;2220;-71
2022/02/25 06:43:02;;;;;;;;;;;;;;;0.49;97.29;96257.59;10559338;27;1899;-71
2022/02/25 06:48:05;;;;;;;;;;;;;;;0.46;98.20;96263.31;10546390;27;1988;-71
2022/02/25 06:53:09;;;;;;;;;;;;;;;0.47;97.62;96272.88;10543742;27;1799;-71
2022/02/25 06:58:12;;;;;;;;;;;;;;;0.49;97.01;96273.47;10571022;27;1764;-71
2022/02/25 07:03:17;;;;;;;;;;;;;;;0.54;97.31;96278.19;10568613;27;1897;-71
2022/02/25 07:08:23;;;;;;;;;;;;;;;0.43;96.95;96290.13;10548281;27;1913;-71
2022/02/25 07:13:28;;;;;;;;;;;;;;;0.55;97.69;96279.81;10574717;27;1828;-70
2022/02/25 07:18:31;;;;;;;;;;;;;;;0.61;97.42;96289.59;10545415;28;1848;-70
2022/02/25 07:23:36;;;;;;;;;;;;;;;0.72;95.67;96302.25;10542764;27;1856;-71
2022/02/25 07:28:40;;;;;;;;;;;;;;;0.74;95.80;96307.34;10594059;27;1937;-70
2022/02/25 07:33:47;;;;;;;;;;;;;;;0.73;95.82;96316.31;10553953;27;2078;-70
2022/02/25 07:38:50;;;;;;;;;;;;;;;0.70;94.50;96316.69;10564960;28;1927;-70
2022/02/25 07:43:54;;;;;;;;;;;;;;;0.69;93.60;96323.81;10566196;27;1797;-71
2022/02/25 07:48:59;;;;;;;;;;;;;;;0.77;93.67;96320.19;10572783;27;1938;-68
2022/02/25 07:54:04;;;;;;;;;;;;;;;1.03;91.49;96316.81;10569869;27;1769;-68
2022/02/25 07:59:07;;;;;;;;;;;2.10;99.90;;;1.51;90.57;96317.47;10541934;27;1805;-70
2022/02/25 08:04:11;;;;;;;;;;;2.20;99.90;;;1.94;86.57;96318.88;10540155;28;1841;-69
2022/02/25 08:09:14;;;;;;;;;;;2.70;99.90;;;2.05;84.03;96320.91;10559077;28;1917;-70
2022/02/25 08:14:16;;;;;;;;;;;3.00;99.90;;;2.02;82.33;96332.72;10558538;27;1823;-70
2022/02/25 08:19:19;;;;;;;;;;;3.10;99.90;;;1.94;81.51;96330.31;10533119;27;1935;-69
2022/02/25 08:24:22;;;;;;;;;;;3.00;99.90;;;2.47;80.81;96334.69;10548373;27;1951;-70
2022/02/25 08:29:25;;;;;;;;;;;3.20;99.90;;;2.44;76.72;96330.63;10564862;27;2044;-69
2022/02/25 08:34:28;;;;;;;;;;;3.40;99.90;;;2.57;74.39;96325.25;10524203;28;1891;-71
2022/02/25 08:39:33;;;;;;;;;;;3.40;99.90;;;2.51;72.10;96318.13;10554549;28;1877;-70
2022/02/25 08:44:36;;;;;;;;;;;3.50;99.90;;;2.70;73.18;96322.56;10576837;27;1907;-69
2022/02/25 08:49:39;;;;;;;;;;;3.40;99.90;;;3.23;70.72;96309.00;10536040;28;1905;-70
2022/02/25 08:54:42;;;;;;;;;;;3.90;99.90;;;2.90;69.51;96329.63;10534276;28;1965;-70
2022/02/25 08:59:45;;;;;;;;;;;4.00;99.90;;;2.85;68.22;96322.28;10530091;28;1795;-70
2022/02/25 09:04:48;;;;;;;;;;;3.90;99.90;;;3.13;68.50;96315.81;10549383;28;1831;-68
2022/02/25 09:09:51;;;;;;;;;;;3.90;99.90;;;3.25;65.94;96328.22;10582431;27;1917;-68
2022/02/25 09:14:54;;;;;;;;;;;4.10;99.90;;;3.08;63.11;96320.97;10576226;27;1855;-73
2022/02/25 09:19:59;;;;;;;;;;;4.10;99.90;;;3.15;63.12;96327.84;10559902;27;1836;-69
2022/02/25 09:25:02;;;;;;;;;;;4.10;99.90;;;3.31;60.40;96331.88;10551154;28;1834;-70
2022/02/25 09:30:07;;;;;;;;;;;4.20;99.90;;;3.40;60.64;96330.56;10555602;28;2128;-69
2022/02/25 09:35:10;;;;;;;;;;;4.20;99.90;;;3.46;56.83;96335.03;10580806;27;1868;-69
2022/02/25 09:40:13;;;;;;;;;;;4.40;99.90;;;3.44;55.91;96333.63;10553226;28;1599;-70
2022/02/25 09:45:17;;;;;;;;;;;4.40;99.90;;;3.72;54.27;96331.34;10546790;27;2156;-69
2022/02/25 09:50:22;;;;;;;;;;;4.60;99.90;;;3.80;53.41;96315.13;10562758;27;1825;-70
2022/02/25 09:55:25;;;;;;;;;;;4.90;99.90;;;4.52;52.89;96314.66;10566906;27;1872;-68
2022/02/25 10:00:30;;;;;;;;;;;5.10;99.90;;;4.84;52.35;96321.44;10554269;27;1883;-69
2022/02/25 10:05:33;;;;;;;;;;;5.80;99.90;;;5.23;50.57;96327.28;10587943;27;1985;-69
2022/02/25 10:10:36;;;;;;;;;;;5.80;99.90;;;4.54;50.43;96325.88;10556061;27;1924;-69
2022/02/25 10:15:40;;;;;;;;;;;;;;;3.91;48.03;96331.41;10577094;27;1887;-70
2022/02/25 10:20:42;;;;;;;;;;;4.70;99.90;;;3.95;47.52;96312.16;10565113;28;1879;-71
2022/02/25 10:25:51;;;;;;;;;;;4.80;99.90;;;4.23;49.25;96335.63;10555243;27;1914;-69
2022/02/25 10:30:55;;;;;;;;;;;4.90;99.90;;;4.27;49.71;96331.50;10580557;27;1940;-70
2022/02/25 10:36:04;;;;;;;;;;;5.00;99.90;;;4.25;48.61;96336.19;10563950;27;2000;-69
2022/02/25 10:41:06;;;;;;;;;;;5.00;99.90;;;4.29;48.77;96326.75;10549588;28;1933;-70
2022/02/25 10:46:10;;;;;;;;;;;5.00;99.90;;;4.37;49.15;96322.97;10570028;27;1992;-69
2022/02/25 10:51:13;;;;;;;;;;;5.10;99.90;;;4.78;46.43;96311.69;10564310;28;1917;-69
2022/02/25 10:56:16;;;;;;;;;;;5.40;99.90;;;4.96;46.62;96313.47;10567285;27;1781;-70
2022/02/25 11:01:20;;;;;;;;;;;5.60;99.90;;;5.82;47.67;96311.44;10547881;27;1992;-68
2022/02/25 11:06:24;;;;;;;;;;;6.00;99.90;;;6.00;45.10;96308.69;10567940;27;1932;-69
2022/02/25 11:11:34;;;;;;;;;;;6.60;99.90;;;6.06;42.96;96307.78;10558797;27;1891;-69
2022/02/25 11:16:39;;;;;;;;;;;6.80;99.90;;;5.69;42.50;96307.94;10553988;27;1964;-71
2022/02/25 11:21:57;;;;;;;;;;;6.90;99.90;;;5.09;44.92;96307.16;10557551;27;2113;-69
2022/02/25 11:27:01;;;;;;;;;;;6.10;99.90;;;4.65;45.94;96305.69;10541894;27;1987;-70
2022/02/25 11:32:03;;;;;;;;;;;5.70;99.90;;;4.48;46.54;96290.31;10566208;27;2035;-68
2022/02/25 11:37:06;;;;;;;;;;;5.40;99.90;;;4.47;46.71;96299.34;10572404;27;1864;-69
2022/02/25 11:42:10;;;;;;;;;;;5.30;99.90;;;4.41;45.19;96288.75;10549326;27;1895;-69
2022/02/25 11:47:13;;;;;;;;;;;5.20;99.90;;;4.22;45.29;96288.75;10552891;27;1918;-68
2022/02/25 11:52:17;;;;;;;;;;;5.20;99.90;;;4.22;44.62;96302.06;10539694;27;1879;-69
2022/02/25 11:57:20;;;;;;;;;;;5.10;99.90;;;4.22;44.61;96293.25;10574647;27;1824;-70
2022/02/25 12:02:25;;;;;;;;;;;5.10;99.90;;;4.25;45.55;96290.16;10569547;27;2019;-68
2022/02/25 12:07:28;;;;;;;;;;;5.20;99.90;;;3.86;48.30;96286.03;10548919;28;1906;-69
2022/02/25 12:12:31;;;;;;;;;;;5.00;99.90;;;3.99;49.05;96275.28;10565038;27;1883;-69
2022/02/25 12:17:34;;;;;;;;;;;5.00;99.90;;;4.36;47.16;96272.63;10568609;27;1874;-69
2022/02/25 12:22:37;;;;;;;;;;;5.30;99.90;;;4.38;47.40;96257.25;10561676;27;2055;-70
2022/02/25 12:27:41;;;;;;;;;;;5.40;99.90;;;4.92;44.43;96267.03;10550241;28;1981;-70
2022/02/25 12:32:45;;;;;;;;;;;5.60;99.90;;;5.54;43.07;96258.75;10561957;27;2046;-70
2022/02/25 12:37:48;;;;;;;;;;;6.10;99.90;;;5.59;42.03;96265.00;10545813;28;1830;-70
2022/02/25 12:42:51;;;;;;;;;;;6.50;99.90;;;5.39;42.77;96270.63;10550570;28;2118;-69
2022/02/25 12:47:55;;;;;;;;;;;6.30;99.90;;;5.21;43.68;96267.22;10555719;28;1986;-69
2022/02/25 12:52:57;;;;;;;;;;;6.20;99.90;;;5.23;42.74;96281.97;10580269;27;1804;-70
2022/02/25 12:58:02;;;;;;;;;;;6.20;99.90;;;5.11;46.13;96292.59;10567506;28;1797;-70
2022/02/25 13:03:06;;;;;;;;;;;6.00;99.90;;;4.72;45.99;96282.47;10580387;28;1827;-70
2022/02/25 13:08:14;;;;;;;;;;;5.70;99.90;;;4.61;47.03;96273.38;10589953;28;1887;-69
2022/02/25 13:13:18;;;;;;;;;;;5.60;99.90;;;4.89;46.74;96270.94;10570635;28;1894;-68
2022/02/25 13:18:20;;;;;;;;;;;5.70;99.90;;;4.78;47.08;96271.72;10590923;28;1739;-69
2022/02/25 13:23:24;;;;;;;;;;;5.80;99.90;;;4.70;48.24;96269.34;10590436;28;1775;-70
2022/02/25 13:28:27;;;;;;;;;;;5.70;99.90;;;4.65;47.30;96271.88;10593126;28;1890;-70
2022/02/25 13:33:31;;;;;;;;;;;5.60;99.90;;;5.05;45.87;96279.34;10573462;28;1875;-70
2022/02/25 13:38:34;;;;;;;;;;;5.80;99.90;;;5.25;46.69;96258.56;10585749;28;1844;-70
2022/02/25 13:43:37;;;;;;;;;;;6.00;99.90;;;5.09;47.54;96264.53;10557363;28;1789;-72
2022/02/25 13:54:00;;;;;;;;;;;6.10;99.90;;;5.68;47.11;96270.81;10566580;27;1852;-70
2022/02/25 13:59:04;;;;;;;;;;;6.30;99.90;;;5.63;47.21;96268.03;10572370;27;2303;-69
2022/02/25 14:04:07;;;;;;;;;;;6.60;99.90;;;5.72;46.86;96269.28;10575473;27;1983;-69
2022/02/25 14:09:10;;;;;;;;;;;6.60;99.90;;;4.97;47.08;96261.03;10572121;28;1918;-71
2022/02/25 14:14:13;;;;;;;;;;;6.20;99.90;;;4.69;46.58;96256.25;10602779;27;1797;-72
2022/02/25 14:19:16;;;;;;;;;;;6.20;99.90;;;4.71;46.42;96256.84;10586680;27;1917;-70
2022/02/25 14:24:18;;;;;;;;;;;5.70;99.90;;;4.72;46.77;96264.63;10586909;27;1812;-70
2022/02/25 14:29:22;;;;;;;;;;;5.70;99.90;;;4.87;45.59;96270.34;10582214;27;2284;-69
2022/02/25 14:34:25;;;;;;;;;;;5.80;99.90;;;4.86;46.43;96282.06;10584329;27;1814;-69
2022/02/25 14:39:29;;;;;;;;;;;5.80;99.90;;;4.75;47.06;96276.66;10572622;27;2062;-71
2022/02/25 14:44:32;;;;;;;;;;;5.80;99.90;;;3.97;55.29;96293.31;10580073;27;1873;-69
2022/02/25 14:49:35;;;;;;;;;;;5.50;99.90;;;3.30;60.64;96302.81;10556308;27;1909;-70
2022/02/25 14:54:39;;;;;;;;;;;4.70;99.90;;;3.13;62.88;96326.44;10559634;27;1862;-71
2022/02/25 14:59:44;;;;;;;;;;;4.40;99.90;;;2.74;74.81;96351.34;10570221;27;1842;-70
2022/02/25 15:04:47;;;;;;;;;;;4.00;99.90;;;2.46;83.26;96336.53;10552214;27;1768;-69
2022/02/25 15:09:50;;;;;;;;;;;3.60;99.90;;;2.77;86.97;96354.38;10554611;27;1914;-70
2022/02/25 15:14:54;;;;;;;;;;;3.40;99.90;;;3.28;86.89;96336.78;10551466;27;1911;-70
2022/02/25 15:19:57;;;;;;;;;;;3.90;99.90;;;3.29;84.66;96333.09;10560915;27;1913;-71
2022/02/25 15:25:00;;;;;;;;;;;4.20;99.90;;;3.54;83.25;96325.97;10563689;27;1824;-73
2022/02/25 15:30:04;;;;;;;;;;;4.40;99.90;;;3.47;82.03;96327.88;10572643;27;2008;-71
2022/02/25 15:35:07;;;;;;;;;;;4.50;99.90;;;3.61;82.13;96337.38;10580404;27;1773;-72
2022/02/25 15:40:10;;;;;;;;;;;4.50;99.90;;;3.17;82.29;96331.09;10552767;27;2086;-72
2022/02/25 15:45:13;;;;;;;;;;;4.40;99.90;;;3.05;82.80;96326.69;10575760;27;1946;-73
2022/02/25 15:50:17;;;;;;;;;;;4.20;99.90;;;3.12;84.11;96332.78;10575338;22;3589;-71
2022/02/25 15:55:21;;;;;;;;;;;4.20;99.90;;;3.23;84.20;96332.09;10486650;28;1748;-71
2022/02/25 16:00:24;;;;;;;;;;;4.20;99.90;;;3.14;83.53;96336.84;10472947;28;1788;-73
2022/02/25 16:05:28;;;;;;;;;;;4.20;99.90;;;3.20;82.51;96336.00;10455422;28;1845;-72
2022/02/25 16:10:31;;;;;;;;;;;4.20;99.90;;;3.07;83.20;96336.09;10445915;28;1969;-71
2022/02/25 16:15:35;;;;;;;;;;;4.10;99.90;;;3.08;83.28;96316.47;10448911;28;1768;-69
2022/02/25 16:20:38;;;;;;;;;;;4.10;99.90;;;3.03;82.67;96297.69;10435200;28;1842;-71
2022/02/25 16:25:42;;;;;;;;;;;4.20;99.90;;;3.01;82.82;96305.06;10446939;28;1818;-69
2022/02/25 16:30:46;;;;;;;;;;;4.10;99.90;;;2.93;82.93;96302.66;10446257;28;1918;-70
2022/02/25 16:35:49;;;;;;;;;;;4.10;99.90;;;2.84;83.30;96314.53;10451017;28;1560;-70
2022/02/25 16:40:52;;;;;;;;;;;4.00;99.90;;;2.61;83.03;96331.78;10450972;28;2245;-69
2022/02/25 16:45:55;;;;;;;;;;;3.90;99.90;;;2.41;84.72;96334.50;10430136;28;1858;-69
2022/02/25 16:50:58;;;;;;;;;;;3.70;99.90;;;2.33;84.49;96345.34;10448291;28;1970;-72
2022/02/25 16:56:02;;;;;;;;;;;3.60;99.90;;;2.30;83.54;96355.56;10433042;28;1784;-71
2022/02/25 17:01:06;;;;;;;;;;;3.50;99.90;;;2.33;84.19;96373.69;10438433;28;1837;-71
2022/02/25 17:06:11;;;;;;;;;;;3.40;99.90;;;2.31;84.11;96370.44;10438801;28;1831;-72
2022/02/25 17:11:14;;;;;;;;;;;3.50;99.90;;;2.34;83.41;96376.13;10454399;28;2202;-72
2022/02/25 17:16:17;;;;;;;;;;;3.40;99.90;;;2.31;83.58;96387.19;10434007;28;1873;-70
2022/02/25 17:21:20;;;;;;;;;;;3.40;99.90;;;2.40;82.87;96393.06;10439607;28;1943;-71
2022/02/25 17:26:23;;;;;;;;;;;3.40;99.90;;;2.53;81.58;96402.84;10441314;28;1797;-71
2022/02/25 17:31:26;;;;;;;;;;;3.60;99.90;;;2.51;81.08;96405.72;10449400;28;1914;-70
2022/02/25 17:36:29;;;;;;;;;;;3.50;99.90;;;2.57;80.21;96412.84;10449991;28;2300;-71
2022/02/25 17:41:32;;;;;;;;;;;3.60;99.90;;;2.61;78.54;96437.97;10443446;28;1792;-71
2022/02/25 17:46:35;;;;;;;;;;;3.60;99.90;;;2.62;77.64;96444.91;10442894;28;1926;-71
2022/02/25 17:51:39;;;;;;;;;;;3.70;99.90;;;2.62;77.72;96447.56;10454354;28;1974;-70
2022/02/25 17:56:42;;;;;;;;;;;3.60;99.90;;;2.52;78.36;96444.50;10445397;28;1807;-71
2022/02/25 18:01:46;;;;;;;;;;;3.50;99.90;;;2.54;77.02;96447.75;10451407;28;1828;-70
2022/02/25 18:06:49;;;;;;;;;;;3.50;99.90;;;2.55;77.64;96449.41;10449906;28;1836;-69
2022/02/25 18:11:53;;;;;;;;;;;3.60;99.90;;;2.66;77.09;96459.38;10444361;28;2302;-71
2022/02/25 18:16:56;;;;;;;;;;;3.60;99.90;;;2.65;76.58;96462.25;10438726;28;1862;-70
2022/02/25 18:21:59;;;;;;;;;;;3.60;99.90;;;2.58;74.41;96459.59;10442514;28;2022;-69
2022/02/25 18:27:03;;;;;;;;;;;3.60;99.90;;;2.53;74.90;96471.84;10444177;28;1746;-69
2022/02/25 18:32:06;;;;;;;;;;;3.50;99.90;;;2.44;76.19;96473.91;10451206;28;1990;-68
2022/02/25 18:37:09;;;;;;;;;;;3.50;99.90;;;2.39;76.99;96484.31;10453998;28;1815;-68
2022/02/25 18:42:13;;;;;;;;;;;3.50;99.90;;;2.31;76.76;96479.22;10460196;28;1842;-69
2022/02/25 18:47:16;;;;;;;;;;;3.40;99.90;;;2.27;78.17;96485.94;10453121;28;1869;-70
2022/02/25 18:52:20;;;;;;;;;;;3.50;99.90;;;2.22;78.74;96494.50;10461550;28;1938;-70
2022/02/25 18:57:24;;;;;;;;;;;3.40;99.90;;;2.20;79.01;96493.09;10438831;28;1835;-68
2022/02/25 19:02:27;;;;;;;;;;;3.50;99.90;;;2.17;80.67;96495.13;10451274;28;1845;-70
2022/02/25 19:07:30;;;;;;;;;;;3.30;99.90;;;2.04;82.50;96500.44;10439121;28;1911;-70
2022/02/25 19:12:36;;;;;;;;;;;3.30;99.90;;;1.99;84.33;96508.16;10446058;28;2046;-71
2022/02/25 19:17:38;;;;;;;;;;;3.00;99.90;;;1.76;86.68;96513.81;10438061;28;1782;-70
2022/02/25 19:22:42;;;;;;;;;;;2.90;99.90;;;1.46;89.12;96513.31;10448993;28;1772;-70
2022/02/25 19:27:45;;;;;;;;;;;2.80;99.90;;;1.36;91.35;96520.81;10443407;28;1984;-70
2022/02/25 19:32:48;;;;;;;;;;;2.70;99.90;;;1.15;92.81;96520.94;10446743;28;2191;-70
2022/02/25 19:37:54;;;;;;;;;;;2.50;99.90;;;1.10;94.71;96529.47;10445962;28;1784;-69
2022/02/25 19:42:58;;;;;;;;;;;2.40;99.90;;;0.95;96.34;96526.91;10443920;28;1989;-73
2022/02/25 19:48:00;;;;;;;;;;;2.30;99.90;;;0.85;97.88;96534.41;10437698;28;1985;-70
2022/02/25 19:53:04;;;;;;;;;;;2.10;99.90;;;0.89;98.23;96542.75;10434178;28;1716;-67
2022/02/25 19:58:08;;;;;;;;;;;;;;;0.79;98.60;96543.13;10439955;28;1787;-70
2022/02/25 20:03:12;;;;;;;;;;;2.10;99.90;;;0.85;99.22;96542.34;10445388;28;1524;-70
2022/02/25 20:08:15;;;;;;;;;;;2.10;99.90;;;0.85;99.43;96547.63;10451207;28;1975;-70
2022/02/25 20:13:18;;;;;;;;;;;2.00;99.90;;;0.81;99.61;96541.91;10433996;28;1437;-71
2022/02/25 20:18:22;;;;;;;;;;;2.00;99.90;;;0.67;100.00;96553.41;10438713;28;1720;-72
2022/02/25 20:23:26;;;;;;;;;;;2.00;99.90;;;0.64;100.00;96560.94;10451808;28;1413;-71
2022/02/25 20:28:29;;;;;;;;;;;2.00;99.90;;;0.59;100.00;96558.03;10441235;28;1926;-70
2022/02/25 20:33:32;;;;;;;;;;;1.90;99.90;;;0.67;100.00;96564.00;10450768;28;1528;-70
2022/02/25 20:38:35;;;;;;;;;;;1.80;99.90;;;0.72;100.00;96564.25;10440320;28;1497;-68
2022/02/25 20:43:39;;;;;;;;;;;1.90;99.90;;;0.75;100.00;96570.97;10443231;28;1884;-71
2022/02/25 20:48:42;;;;;;;;;;;1.90;99.90;;;0.83;100.00;96576.13;10444694;28;1918;-69
2022/02/25 20:53:47;;;;;;;;;;;1.90;99.90;;;0.96;100.00;96570.94;10434987;28;1633;-70
2022/02/25 20:58:51;;;;;;;;;;;2.00;99.90;;;1.11;99.23;96572.63;10433147;28;1558;-68
2022/02/25 21:03:54;;;;;;;;;;;2.10;99.90;;;1.20;98.57;96577.56;10435758;28;1471;-67
2022/02/25 21:08:58;;;;;;;;;;;2.20;99.90;;;1.30;97.49;96574.59;10446541;28;1980;-70
2022/02/25 21:14:01;;;;;;;;;;;2.40;99.90;;;1.37;96.80;96570.13;10453427;28;1457;-70
2022/02/25 21:19:07;;;;;;;;;;;2.70;99.90;;;1.41;96.16;96573.22;10452859;28;1461;-70
2022/02/25 21:24:10;;;;;;;;;;;2.40;99.90;;;1.30;95.49;96571.94;10442413;28;1457;-69
2022/02/25 21:29:13;;;;;;;;;;;2.40;99.90;;;1.19;96.27;96577.78;10440554;28;1914;-70
2022/02/25 21:34:15;;;;;;;;;;;2.30;99.90;;;1.18;95.97;96584.09;10453296;28;1516;-67
2022/02/25 21:39:19;;;;;;;;;;;2.30;99.90;;;1.22;95.87;96580.03;10446006;28;1747;-69
2022/02/25 21:44:21;;;;;;;;;;;2.30;99.90;;;1.30;94.59;96582.53;10445072;28;1491;-70
2022/02/25 21:49:26;;;;;;;;;;;2.40;99.90;;;1.41;93.41;96578.53;10443260;28;1910;-69
2022/02/25 21:54:29;;;;;;;;;;;2.40;99.90;;;1.48;92.89;96580.19;10484371;22;1994;-71
2022/02/25 21:59:35;;;;;;;;;;;2.50;99.90;;;1.54;92.35;96578.59;10476137;28;1447;-71
2022/02/25 22:04:38;;;;;;;;;;;2.50;99.90;;;1.49;92.12;96581.81;10445104;28;1495;-71
2022/02/25 22:09:41;;;;;;;;;;;2.50;99.90;;;1.52;91.28;96583.25;10438676;28;1910;-71
2022/02/25 22:14:44;;;;;;;;;;;2.50;99.90;;;1.45;91.12;96585.84;10436048;28;1593;-72
2022/02/25 22:19:47;;;;;;;;;;;2.50;99.90;;;1.47;91.05;96588.34;10435093;28;1449;-70
2022/02/25 22:24:51;;;;;;;;;;;2.60;99.90;;;1.45;90.98;96593.81;10441222;28;1755;-70
2022/02/25 22:29:54;;;;;;;;;;;2.50;99.90;;;1.47;90.87;96597.09;10459084;28;1981;-72
2022/02/25 22:34:57;;;;;;;;;;;2.50;99.90;;;1.51;90.51;96600.97;10433002;28;1528;-72
2022/02/25 22:40:01;;;;;;;;;;;2.50;99.90;;;1.49;90.51;96613.59;10427392;28;1536;-71
2022/02/25 22:45:04;;;;;;;;;;;2.50;99.90;;;1.43;89.98;96611.75;10443964;28;1521;-71
2022/02/25 23:00:46;;;;;;;;;;;2.30;99.90;;;1.11;93.41;96628.25;10429962;28;1485;-72
2022/02/25 23:11:10;;;;;;;;;;;2.10;99.90;;;0.98;95.27;96636.91;10450437;28;1959;-72
2022/02/25 23:16:13;;;;;;;;;;;2.00;99.90;;;0.95;94.84;96632.81;10438681;28;2158;-72
2022/02/25 23:21:18;;;;;;;;;;;2.00;99.90;;;0.84;96.24;96625.41;10428629;28;1464;-71
2022/02/25 23:26:21;;;;;;;;;;;2.00;99.90;;;0.75;96.34;96632.66;10427365;28;1492;-71
2022/02/25 23:31:24;;;;;;;;;;;1.90;99.90;;;0.79;96.74;96638.38;10434386;28;1910;-71
2022/02/25 23:36:27;;;;;;;;;;;1.90;99.90;;;1.00;95.34;96635.69;10438421;28;2273;-70
2022/02/25 23:41:31;;;;;;;;;;;1.90;99.90;;;0.99;94.80;96634.06;10431109;28;1882;-70
2022/02/25 23:46:34;;;;;;;;;;;2.00;99.90;;;0.88;94.72;96631.13;10439563;28;1888;-73
2022/02/25 23:51:37;;;;;;;;;;;1.90;99.90;;;0.66;95.86;96644.38;10431908;28;1926;-72
2022/02/25 23:56:41;;;;;;;;;;;;;;;0.61;96.43;96652.06;10440010;28;1870;-71
